Woodrow, Minnesota
Current Conditions -  °F | °C
As of 2:14 AM on Monday 24 Nov 2014 (Local Time) from KPWC Reporting Station
Overcast Overcast  
Wind Chill: 11°   Ceiling: 800
Heat Index: 21°   Visibility: 10mi
Dew Point: 19°   Wind: 9mph
Humidity: 93%   Direction: 320°NW
Pressure: 29.42"   Gusts: 18mph
Location:  46.6535°N, 94.5389°W
Report Text: KPWC 240814Z AUTO 32008G16KT 10SM OVC008 M06/M07 A2942 RMK AO2
Loading
Personal Weather Stations






























Interactive Weather Map New forecast layout! Learn more

10-Day Weather Forecast

Advertisements
Track Severe Weather on mobile